createdAt,value
2019-03-27T00:00:01.999Z,5.8
2019-03-27T00:05:05.170Z,5.7
2019-03-27T00:10:01.850Z,5.68
2019-03-27T00:15:12.458Z,5.59
2019-03-27T00:20:05.338Z,5.51
2019-03-27T00:25:04.845Z,5.36
2019-03-27T00:30:02.613Z,5.22
2019-03-27T00:35:02.813Z,5.12
2019-03-27T00:40:03.052Z,4.97
2019-03-27T00:45:02.573Z,4.86
2019-03-27T00:50:02.758Z,4.72
2019-03-27T00:55:02.640Z,4.57
2019-03-27T01:00:01.882Z,4.37
2019-03-27T01:05:03.117Z,4.24
2019-03-27T01:10:03.487Z,4.18
2019-03-27T01:15:01.923Z,4.07
2019-03-27T01:20:02.755Z,3.95
2019-03-27T01:25:04.576Z,3.9
2019-03-27T01:30:03.276Z,3.84
2019-03-27T01:35:03.591Z,3.82
2019-03-27T01:40:04.708Z,3.86
2019-03-27T01:45:02.895Z,3.83
2019-03-27T01:50:04.425Z,3.73
2019-03-27T01:55:04.719Z,3.75
2019-03-27T02:00:02.731Z,3.68
2019-03-27T02:05:03.804Z,3.65
2019-03-27T02:10:10.426Z,3.62
2019-03-27T02:15:04.624Z,3.45
2019-03-27T02:20:09.304Z,3.47
2019-03-27T02:25:05.273Z,3.57
2019-03-27T02:30:04.208Z,3.63
2019-03-27T02:35:04.502Z,3.7
2019-03-27T02:40:05.456Z,3.72
2019-03-27T02:45:02.661Z,3.75
2019-03-27T02:50:04.664Z,3.84
2019-03-27T02:55:05.643Z,3.93
2019-03-27T03:00:03.028Z,3.97
2019-03-27T03:05:04.823Z,3.99
2019-03-27T03:10:05.533Z,4.02
2019-03-27T03:15:05.012Z,4.08
2019-03-27T03:20:05.310Z,4.14
2019-03-27T03:25:05.728Z,4.23
2019-03-27T03:30:06.305Z,4.23
2019-03-27T03:35:07.798Z,4.28
2019-03-27T03:40:05.144Z,4.29
2019-03-27T03:45:06.417Z,4.28
2019-03-27T03:50:07.856Z,4.21
2019-03-27T03:55:05.184Z,4.23
2019-03-27T04:00:02.992Z,4.17
2019-03-27T04:05:07.681Z,4.16
2019-03-27T04:10:03.075Z,4.19
2019-03-27T04:15:05.088Z,4.23
2019-03-27T04:20:04.144Z,4.27
2019-03-27T04:25:04.520Z,4.3
2019-03-27T04:30:02.679Z,4.32
2019-03-27T04:35:05.384Z,4.39
2019-03-27T04:40:04.800Z,4.41
2019-03-27T04:45:02.555Z,4.45
2019-03-27T04:50:05.477Z,4.5
2019-03-27T04:55:04.615Z,4.53
2019-03-27T05:00:02.505Z,4.56
2019-03-27T05:05:05.367Z,4.59
2019-03-27T05:10:05.193Z,4.61
2019-03-27T05:15:02.662Z,4.63
2019-03-27T05:20:05.744Z,4.69
2019-03-27T05:25:04.599Z,4.69
2019-03-27T05:30:02.746Z,4.75
2019-03-27T05:35:04.109Z,4.75
2019-03-27T05:40:04.675Z,4.77
2019-03-27T05:45:02.373Z,4.77
2019-03-27T05:50:04.683Z,4.79
2019-03-27T05:55:05.821Z,4.86
2019-03-27T06:00:01.823Z,4.86
2019-03-27T06:05:04.511Z,4.91
2019-03-27T06:10:03.225Z,4.94
2019-03-27T06:15:04.176Z,4.98
2019-03-27T06:20:04.481Z,5
2019-03-27T06:25:06.256Z,5.05
2019-03-27T06:30:02.323Z,5.11
2019-03-27T06:35:03.217Z,5.12
2019-03-27T06:40:02.925Z,5.13
2019-03-27T06:45:01.998Z,5.22
2019-03-27T06:50:03.728Z,5.24
2019-03-27T06:55:02.853Z,5.34
2019-03-27T07:00:02.030Z,5.41
2019-03-27T07:05:03.210Z,5.48
2019-03-27T07:10:02.690Z,5.53
2019-03-27T07:20:02.822Z,5.71
2019-03-27T07:25:02.983Z,5.82
2019-03-27T07:30:02.193Z,5.87
2019-03-27T07:35:04.876Z,5.94
2019-03-27T07:40:05.005Z,6.02
2019-03-27T07:45:02.360Z,6.06
2019-03-27T07:50:05.411Z,6.24
2019-03-27T07:55:18.384Z,6.39
2019-03-27T08:00:03.230Z,6.45
2019-03-27T08:05:04.523Z,6.64
2019-03-27T08:10:04.045Z,6.78
2019-03-27T08:15:04.267Z,7.04
2019-03-27T08:20:05.611Z,7.41
2019-03-27T08:25:05.217Z,7.68
2019-03-27T08:30:02.655Z,7.46
2019-03-27T08:35:06.646Z,7.15
2019-03-27T08:40:05.062Z,7.32
2019-03-27T08:45:02.527Z,7.37
2019-03-27T08:50:04.914Z,7.54
2019-03-27T08:55:04.981Z,7.73
2019-03-27T09:00:02.770Z,7.98
2019-03-27T09:05:04.409Z,8.18
2019-03-27T09:10:03.888Z,7.83
2019-03-27T09:15:02.666Z,8.11
2019-03-27T09:20:03.360Z,8.23
2019-03-27T09:25:05.187Z,8.14
2019-03-27T09:30:02.483Z,8.18
2019-03-27T09:35:04.232Z,8.28
2019-03-27T09:40:04.610Z,8.11
2019-03-27T09:45:02.667Z,7.7
2019-03-27T09:50:04.235Z,7.6
2019-03-27T09:55:04.529Z,7.54
2019-03-27T10:00:02.626Z,7.67
2019-03-27T10:05:03.505Z,7.84
2019-03-27T10:10:03.886Z,7.94
2019-03-27T10:15:02.931Z,8.13
2019-03-27T10:20:04.374Z,8.14
2019-03-27T10:25:05.038Z,7.99
2019-03-27T10:30:03.072Z,8.28
2019-03-27T10:35:04.128Z,8.37
2019-03-27T10:40:05.368Z,8.75
2019-03-27T10:45:02.596Z,8.83
2019-03-27T10:50:16.874Z,8.9
2019-03-27T10:55:06.111Z,8.68
2019-03-27T11:00:02.729Z,8.34
2019-03-27T11:05:05.112Z,8.37
2019-03-27T11:10:05.327Z,8.71
2019-03-27T11:15:01.728Z,8.75
2019-03-27T11:20:04.117Z,9.48
2019-03-27T11:25:04.792Z,9.93
2019-03-27T11:30:02.395Z,10.09
2019-03-27T11:35:04.600Z,10.16
2019-03-27T11:40:05.367Z,10.29
2019-03-27T11:45:02.227Z,9.76
2019-03-27T11:50:05.662Z,10.1
2019-03-27T11:55:05.408Z,10.1
2019-03-27T12:00:02.286Z,9.99
2019-03-27T12:05:05.395Z,10.07
2019-03-27T12:10:02.479Z,10.4
2019-03-27T12:15:03.842Z,9.4
2019-03-27T12:20:04.363Z,9.42
2019-03-27T12:25:05.050Z,9.65
2019-03-27T12:30:01.764Z,9.67
2019-03-27T12:35:03.024Z,9.65
2019-03-27T12:40:10.982Z,9.57
2019-03-27T12:45:02.434Z,9.37
2019-03-27T12:50:02.942Z,9.27
2019-03-27T12:55:03.020Z,9.22
2019-03-27T13:00:02.382Z,9.41
2019-03-27T13:05:02.749Z,9.55
2019-03-27T13:10:05.949Z,9.34
2019-03-27T13:15:03.190Z,9.4
2019-03-27T13:20:05.506Z,9.49
2019-03-27T13:25:06.291Z,9.63
2019-03-27T13:30:02.665Z,9.69
2019-03-27T13:35:04.919Z,9.95
2019-03-27T13:40:04.975Z,9.95
2019-03-27T13:45:02.237Z,9.91
2019-03-27T13:50:03.832Z,9.99
2019-03-27T13:55:04.720Z,9.75
2019-03-27T14:00:02.533Z,9.54
2019-03-27T14:05:04.018Z,9.47
2019-03-27T14:10:04.328Z,9.48
2019-03-27T14:15:03.009Z,9.57
2019-03-27T14:20:05.586Z,9.82
2019-03-27T14:25:06.140Z,10.06
2019-03-27T14:30:03.041Z,10.26
2019-03-27T14:35:05.759Z,10.49
2019-03-27T14:40:04.895Z,10.63
2019-03-27T14:45:02.766Z,10.4
2019-03-27T14:50:05.520Z,10.27
2019-03-27T14:55:05.089Z,9.89
2019-03-27T15:00:02.585Z,9.94
2019-03-27T15:05:05.185Z,10
2019-03-27T15:10:04.072Z,9.98
2019-03-27T15:15:02.879Z,10.03
2019-03-27T15:20:03.579Z,10.05
2019-03-27T15:25:04.299Z,10
2019-03-27T15:30:02.504Z,10
2019-03-27T15:35:04.810Z,10.08
2019-03-27T15:40:04.612Z,10.01
2019-03-27T15:45:02.446Z,9.98
2019-03-27T15:50:04.268Z,9.88
2019-03-27T15:55:03.619Z,9.94
2019-03-27T16:00:02.585Z,10.06
2019-03-27T16:05:04.327Z,10.2
2019-03-27T16:10:04.518Z,10.22
2019-03-27T16:15:02.722Z,10.15
2019-03-27T16:20:03.810Z,10.04
2019-03-27T16:25:05.382Z,9.82
2019-03-27T16:30:02.277Z,9.8
2019-03-27T16:35:04.551Z,9.71
2019-03-27T16:40:04.173Z,9.72
2019-03-27T16:45:02.873Z,9.64
2019-03-27T16:50:04.185Z,9.6
2019-03-27T16:55:06.022Z,9.53
2019-03-27T17:00:02.078Z,9.4
2019-03-27T17:05:06.064Z,9.36
2019-03-27T17:10:04.334Z,9.29
2019-03-27T17:15:02.190Z,9.2
2019-03-27T17:20:04.546Z,9.04
2019-03-27T17:25:04.595Z,9.01
2019-03-27T17:30:02.440Z,8.92
2019-03-27T17:35:04.382Z,8.86
2019-03-27T17:40:04.467Z,8.72
2019-03-27T17:45:02.423Z,8.59
2019-03-27T17:50:04.273Z,8.52
2019-03-27T17:55:04.465Z,8.45
2019-03-27T18:00:02.333Z,8.32
2019-03-27T18:05:04.289Z,8.26
2019-03-27T18:10:02.390Z,8.14
2019-03-27T18:15:04.935Z,8.05
2019-03-27T18:20:02.610Z,8.04
2019-03-27T18:25:03.048Z,8.02
2019-03-27T18:30:02.396Z,7.96
2019-03-27T18:35:02.687Z,7.89
2019-03-27T18:40:02.678Z,7.82
2019-03-27T18:45:02.242Z,7.76
2019-03-27T18:50:04.041Z,7.65
2019-03-27T18:55:04.327Z,7.63
2019-03-27T19:00:03.063Z,7.56
2019-03-27T19:05:04.450Z,7.46
2019-03-27T19:10:03.339Z,7.41
2019-03-27T19:15:02.938Z,7.33
2019-03-27T19:20:04.383Z,7.3
2019-03-27T19:25:04.882Z,7.24
2019-03-27T19:30:02.664Z,7.22
2019-03-27T19:35:04.261Z,7.17
2019-03-27T19:40:04.834Z,7.16
2019-03-27T19:45:02.838Z,7.09
2019-03-27T19:50:04.540Z,7.08
2019-03-27T19:55:04.554Z,7.02
2019-03-27T20:00:02.863Z,6.96
2019-03-27T20:05:04.051Z,6.91
2019-03-27T20:10:04.649Z,6.82
2019-03-27T20:15:11.535Z,6.69
2019-03-27T20:20:07.126Z,6.6
2019-03-27T20:25:05.876Z,6.54
2019-03-27T20:30:03.818Z,6.5
2019-03-27T20:35:06.939Z,6.43
2019-03-27T20:40:05.549Z,6.43
2019-03-27T20:45:05.499Z,6.36
2019-03-27T20:50:11.255Z,6.34
2019-03-27T20:55:06.321Z,6.31
2019-03-27T21:00:06.207Z,6.28
2019-03-27T21:05:06.866Z,6.2
2019-03-27T21:10:07.956Z,6.13
2019-03-27T21:15:05.351Z,6.08
2019-03-27T21:20:05.398Z,6.04
2019-03-27T21:25:08.330Z,6.02
2019-03-27T21:30:07.284Z,6
2019-03-27T21:35:05.584Z,6.04
2019-03-27T21:40:07.250Z,5.97
2019-03-27T21:45:08.333Z,5.9
2019-03-27T21:50:08.507Z,5.83
2019-03-27T21:55:21.420Z,5.79
2019-03-27T22:00:06.849Z,5.79
2019-03-27T22:05:04.259Z,5.78
2019-03-27T22:10:04.450Z,5.7
2019-03-27T22:15:04.851Z,5.66
2019-03-27T22:20:08.337Z,5.65
2019-03-27T22:25:06.864Z,5.76
2019-03-27T22:30:09.113Z,5.74
2019-03-27T22:35:06.866Z,5.7
2019-03-27T22:40:05.505Z,5.78
2019-03-27T22:45:07.878Z,5.77
2019-03-27T22:50:08.767Z,5.71
2019-03-27T22:55:07.751Z,5.7
2019-03-27T23:00:06.817Z,5.71
2019-03-27T23:05:07.060Z,5.71
2019-03-27T23:10:17.021Z,5.68
2019-03-27T23:15:07.399Z,5.64
2019-03-27T23:20:08.706Z,5.63
2019-03-27T23:25:07.018Z,5.62
2019-03-27T23:30:06.859Z,5.55
2019-03-27T23:35:08.138Z,5.5
2019-03-27T23:40:05.592Z,5.51
2019-03-27T23:45:07.340Z,5.45
2019-03-27T23:50:04.699Z,5.46
2019-03-27T23:55:04.390Z,5.53
